Time;durP1;ratioP1;P1;durP2;ratioP2;P2;SDS_P1;SDS_P2;PMS_P1;PMS_P2;Temp;Humidity;BMP_temperature;BMP_pressure;BME280_temperature;BME280_humidity;BME280_pressure;Samples;Min_cycle;Max_cycle;Signal;HPM_P1;HPM_P2
2023/10/02 00:01:23;;;;;;;2.13;0.52;;;;;;;10.26;74.62;101581.59;5115645;28;20053;-80
2023/10/02 00:04:16;;;;;;;4.95;0.88;;;;;;;10.27;74.50;101579.88;5117923;28;20857;-80
2023/10/02 00:06:38;;;;;;;3.55;0.50;;;;;;;10.25;74.91;101569.44;5113000;28;20043;-84
2023/10/02 00:09:05;;;;;;;2.70;0.40;;;;;;;10.25;74.65;101563.34;5117736;28;20056;-84
2023/10/02 00:11:36;;;;;;;3.15;0.60;;;;;;;10.20;74.82;101554.66;5118418;28;20117;-85
2023/10/02 00:14:20;;;;;;;2.92;0.82;;;;;;;10.24;75.08;101561.59;5114451;28;20071;-85
2023/10/02 00:16:59;;;;;;;4.03;0.95;;;;;;;10.24;75.10;101558.97;5117539;28;20043;-84
2023/10/02 00:19:31;;;;;;;3.00;0.43;;;;;;;10.18;74.96;101546.81;5111476;28;20050;-85
2023/10/02 00:22:03;;;;;;;2.03;0.70;;;;;;;10.24;74.88;101548.53;5115785;28;20048;-84
2023/10/02 00:24:32;;;;;;;1.85;0.57;;;;;;;10.19;74.83;101545.97;5114940;28;20043;-85
2023/10/02 00:27:02;;;;;;;4.82;0.70;;;;;;;10.18;75.05;101546.81;5119087;28;20064;-85
2023/10/02 00:29:29;;;;;;;4.25;0.50;;;;;;;10.18;74.80;101539.00;5121241;28;20082;-84
2023/10/02 00:31:57;;;;;;;4.60;0.60;;;;;;;10.21;75.11;101543.34;5118448;28;20050;-84
2023/10/02 00:34:31;;;;;;;2.25;0.40;;;;;;;10.20;74.99;101545.09;5125080;28;20036;-84
2023/10/02 00:37:01;;;;;;;2.33;0.38;;;;;;;10.19;75.12;101538.13;5107090;28;20046;-85
2023/10/02 00:39:32;;;;;;;8.88;1.15;;;;;;;10.20;75.13;101536.38;5101887;28;20063;-84
2023/10/02 00:44:58;;;;;;;3.28;0.50;;;;;;;10.18;75.04;101538.13;5089780;28;20133;-85
2023/10/02 00:47:47;;;;;;;3.88;0.60;;;;;;;10.18;75.06;101536.38;5099507;28;20446;-85
2023/10/02 00:50:18;;;;;;;2.75;0.60;;;;;;;10.09;74.95;101519.03;5090685;28;20052;-84
2023/10/02 00:52:51;;;;;;;2.63;0.40;;;;;;;10.15;74.89;101531.19;5092358;28;20101;-84
2023/10/02 00:55:20;;;;;;;4.72;0.40;;;;;;;10.13;74.86;101531.19;5082498;28;20054;-85
2023/10/02 00:57:51;;;;;;;6.15;0.80;;;;;;;10.13;74.75;101527.69;5084321;28;20069;-86
2023/10/02 01:00:20;;;;;;;2.70;0.50;;;;;;;10.12;75.14;101526.84;5080993;28;20562;-86
2023/10/02 01:02:51;;;;;;;3.15;0.50;;;;;;;10.12;75.18;101526.84;5087335;28;20405;-86
2023/10/02 01:05:22;;;;;;;2.75;0.40;;;;;;;10.11;75.08;101519.88;5086841;28;20553;-86
2023/10/02 01:07:54;;;;;;;2.35;0.43;;;;;;;10.09;74.89;101516.41;5079948;28;20059;-75
2023/10/02 01:10:23;;;;;;;3.80;0.50;;;;;;;9.98;75.07;101497.31;5079920;28;20705;-75
2023/10/02 01:13:01;;;;;;;2.55;0.65;;;;;;;10.07;75.02;101518.16;5081492;28;20044;-75
2023/10/02 01:15:28;;;;;;;6.13;0.70;;;;;;;10.05;74.95;101512.09;5082414;28;20131;-75
2023/10/02 01:18:18;;;;;;;2.38;0.43;;;;;;;10.03;75.21;101513.84;5080296;28;20147;-74
2023/10/02 01:20:48;;;;;;;2.45;0.82;;;;;;;10.04;74.97;101518.16;5083533;28;20052;-73
2023/10/02 01:23:17;;;;;;;1.63;0.40;;;;;;;10.03;75.05;101521.66;5080806;28;20456;-74
2023/10/02 01:25:47;;;;;;;2.90;0.43;;;;;;;10.02;75.09;101517.31;5078654;28;20058;-74
2023/10/02 01:28:15;;;;;;;4.88;0.73;;;;;;;9.97;74.63;101511.25;5076021;28;20052;-74
2023/10/02 01:30:47;;;;;;;3.90;0.50;;;;;;;9.95;74.90;101502.56;5082108;28;20312;-74
2023/10/02 01:33:17;;;;;;;3.63;0.60;;;;;;;9.94;75.22;101505.19;5082012;28;20443;-74
2023/10/02 01:35:48;;;;;;;2.97;0.40;;;;;;;9.92;74.92;101513.00;5084168;28;20122;-73
2023/10/02 01:38:18;;;;;;;1.35;0.40;;;;;;;9.93;74.88;101527.78;5079225;28;20054;-74
2023/10/02 01:40:53;;;;;;;2.53;0.63;;;;;;;9.90;74.88;101520.84;5082238;28;20113;-74
2023/10/02 01:43:22;;;;;;;;;;;;;;;9.91;74.68;101529.56;5079266;28;20048;-73
2023/10/02 01:45:49;;;;;;;3.67;0.50;;;;;;;9.84;74.76;101514.78;5082335;28;19964;-73
2023/10/02 01:48:36;;;;;;;3.67;0.40;;;;;;;9.88;75.11;101526.94;5085176;28;20048;-74
2023/10/02 01:51:15;;;;;;;3.38;0.60;;;;;;;9.88;74.91;101524.34;5084638;28;20055;-76
2023/10/02 01:53:43;;;;;;;4.30;0.90;;;;;;;9.86;74.89;101523.47;5078947;28;20778;-74
2023/10/02 01:56:13;;;;;;;3.33;0.40;;;;;;;9.85;75.20;101522.59;5067814;28;20501;-73
2023/10/02 01:58:41;;;;;;;4.47;0.70;;;;;;;9.85;75.06;101526.97;5077270;28;20059;-74
2023/10/02 02:01:09;;;;;;;3.53;0.50;;;;;;;9.85;75.24;101516.53;5086544;28;20405;-73
2023/10/02 02:03:40;;;;;;;3.60;0.63;;;;;;;9.84;75.18;101517.38;5076442;28;20059;-73
2023/10/02 02:06:16;;;;;;;4.53;0.40;;;;;;;9.84;75.79;101514.78;5082162;28;20051;-74
2023/10/02 02:08:44;;;;;;;1.83;0.47;;;;;;;9.82;75.62;101512.19;5074297;28;20055;-74
2023/10/02 02:11:16;;;;;;;2.22;0.45;;;;;;;9.82;75.47;101516.53;5069458;28;20062;-76
2023/10/02 02:13:46;;;;;;;4.90;0.52;;;;;;;9.82;75.69;101512.19;5081199;28;20420;-74
2023/10/02 02:16:15;;;;;;;1.42;0.32;;;;;;;9.77;75.96;101505.25;5080022;28;20071;-76
2023/10/02 02:18:43;;;;;;;1.75;0.30;;;;;;;9.77;75.78;101506.09;5078925;28;20048;-77
2023/10/02 02:21:18;;;;;;;1.80;0.50;;;;;;;9.81;75.71;101520.00;5080131;28;20051;-77
2023/10/02 02:23:45;;;;;;;;;;;;;;;9.81;75.54;101522.59;5080069;28;20101;-76
2023/10/02 02:26:21;;;;;;;1.92;0.40;;;;;;;9.79;75.47;101519.13;5082152;28;19924;-77
2023/10/02 02:28:52;;;;;;;2.72;0.50;;;;;;;9.79;75.61;101521.75;5078529;28;20044;-74
2023/10/02 02:31:32;;;;;;;1.10;0.30;;;;;;;9.77;75.64;101507.84;5081248;28;20043;-74
2023/10/02 02:34:01;;;;;;;5.50;0.50;;;;;;;9.77;75.73;101520.91;5079433;28;20107;-74
2023/10/02 02:36:29;;;;;;;2.65;0.40;;;;;;;9.73;75.89;101517.41;5083284;28;20054;-74
2023/10/02 02:39:16;;;;;;;1.90;0.40;;;;;;;9.76;75.65;101519.16;5079383;28;20822;-74
2023/10/02 02:41:46;;;;;;;1.55;0.30;;;;;;;9.75;75.98;101514.81;5079769;28;20071;-75
2023/10/02 02:46:59;;;;;;;2.92;0.38;;;;;;;9.75;75.78;101517.41;5075036;28;20051;-74
2023/10/02 02:49:27;;;;;;;3.35;0.50;;;;;;;9.72;76.32;101507.00;5081008;28;20068;-74
2023/10/02 02:51:56;;;;;;;2.30;0.38;;;;;;;9.72;76.13;101509.59;5065504;28;20108;-74
2023/10/02 02:54:28;;;;;;;2.30;0.32;;;;;;;9.73;75.86;101512.19;5080985;28;20051;-74
2023/10/02 02:57:00;;;;;;;4.25;0.40;;;;;;;9.75;75.81;101509.59;5081539;28;20048;-74
2023/10/02 02:59:28;;;;;;;3.25;0.50;;;;;;;9.65;76.11;101501.81;5076341;28;20443;-74
2023/10/02 03:02:08;;;;;;;6.15;0.50;;;;;;;9.71;76.23;101507.88;5081703;28;20040;-73
2023/10/02 03:04:38;;;;;;;3.30;0.40;;;;;;;9.69;76.09;101511.34;5076987;28;20052;-73
2023/10/02 03:07:18;;;;;;;2.22;0.50;;;;;;;9.69;76.13;101507.88;5082440;28;20048;-73
2023/10/02 03:09:45;;;;;;;1.90;0.30;;;;;;;9.67;75.87;101510.47;5072105;28;20044;-73
2023/10/02 03:12:16;;;;;;;2.53;0.43;;;;;;;9.66;76.26;101519.19;5083204;28;20048;-74
2023/10/02 03:14:44;;;;;;;1.35;0.50;;;;;;;9.64;76.26;101512.22;5083001;28;20055;-74
2023/10/02 03:19:55;;;;;;;1.90;0.43;;;;;;;9.65;76.63;101516.59;5079974;28;20092;-74
2023/10/02 03:22:24;;;;;;;2.75;0.40;;;;;;;9.64;76.64;101512.22;5078559;28;20036;-74
2023/10/02 03:24:51;;;;;;;2.45;0.30;;;;;;;9.62;76.45;101504.41;5078124;28;20044;-73
2023/10/02 03:27:21;;;;;;;5.65;0.32;;;;;;;9.63;76.44;101511.38;5079676;28;20122;-81
2023/10/02 03:29:49;;;;;;;2.45;0.40;;;;;;;9.65;76.70;101513.97;5086377;28;20044;-80
2023/10/02 03:32:16;;;;;;;2.13;0.38;;;;;;;9.63;76.45;101506.16;5076665;28;20083;-80
2023/10/02 03:34:48;;;;;;;2.10;0.45;;;;;;;9.64;76.44;101507.88;5080377;28;20047;-81
2023/10/02 03:37:21;;;;;;;14.25;1.45;;;;;;;9.64;76.73;101502.66;5079970;28;20060;-75
2023/10/02 03:40:00;;;;;;;2.50;0.30;;;;;;;9.64;76.84;101510.47;5063462;28;20479;-74
2023/10/02 03:42:31;;;;;;;4.32;0.40;;;;;;;9.63;76.56;101502.69;5077889;28;20044;-73
2023/10/02 03:44:59;;;;;;;5.10;0.40;;;;;;;9.63;76.54;101500.94;5076190;28;20051;-74
2023/10/02 03:47:30;;;;;;;3.65;0.40;;;;;;;9.63;76.53;101503.53;5080133;28;20115;-74
2023/10/02 03:50:00;;;;;;;2.50;0.30;;;;;;;9.58;76.61;101497.47;5078204;28;20163;-74
2023/10/02 03:52:28;;;;;;;1.67;0.40;;;;;;;9.60;76.70;101503.56;5073311;28;20040;-74
2023/10/02 03:54:55;;;;;;;4.82;0.40;;;;;;;9.63;76.71;101505.28;5077343;28;20128;-74
2023/10/02 03:57:47;;;;;;;4.60;0.40;;;;;;;9.62;76.63;101503.53;5078802;28;20428;-73
2023/10/02 04:00:19;;;;;;;3.22;0.35;;;;;;;9.55;76.79;101500.06;5076083;28;20127;-74
2023/10/02 04:02:47;;;;;;;3.88;0.38;;;;;;;9.58;76.80;101496.59;5074253;28;20127;-74
2023/10/02 04:05:30;;;;;;;5.07;0.60;;;;;;;9.60;76.46;101500.06;5081561;28;20078;-74
2023/10/02 04:08:12;;;;;;;3.47;0.30;;;;;;;9.55;76.37;101484.44;5073095;28;20055;-75
2023/10/02 04:10:51;;;;;;;2.47;0.40;;;;;;;9.59;76.90;101488.78;5076766;28;20094;-74
2023/10/02 04:13:21;;;;;;;6.32;1.00;;;;;;;9.57;76.77;101487.91;5078192;28;20728;-74
2023/10/02 04:15:53;;;;;;;1.88;0.40;;;;;;;9.60;77.19;101487.03;5075867;28;20429;-74
2023/10/02 04:18:45;;;;;;;3.15;0.50;;;;;;;9.58;76.77;101492.25;5079260;28;20048;-74
2023/10/02 04:21:09;;;;;;;3.78;0.30;;;;;;;9.58;76.59;101476.59;5075807;28;20044;-74
2023/10/02 04:23:42;;;;;;;1.23;0.20;;;;;;;9.57;77.04;101467.03;5080568;28;20089;-74
2023/10/02 04:26:19;;;;;;;2.88;0.30;;;;;;;9.58;77.21;101465.28;5079951;28;20040;-74
2023/10/02 04:28:54;;;;;;;0.77;0.20;;;;;;;9.56;76.61;101467.94;5080978;28;20041;-74
2023/10/02 04:31:23;;;;;;;2.63;0.32;;;;;;;9.58;76.94;101475.72;5087744;28;20120;-74
2023/10/02 04:34:15;;;;;;;1.65;0.40;;;;;;;9.57;76.86;101471.41;5082783;28;20098;-73
2023/10/02 04:36:41;;;;;;;4.85;0.30;;;;;;;9.57;76.88;101463.56;5081596;28;20063;-85
2023/10/02 04:42:09;;;;;;;1.65;0.40;;;;;;;9.55;76.78;101463.56;5089130;28;20051;-85
2023/10/02 04:44:44;;;;;;;2.28;0.30;;;;;;;9.57;76.63;101479.22;5081075;28;20086;-85
2023/10/02 04:47:17;;;;;;;0.50;0.20;;;;;;;9.55;77.03;101478.34;5080727;28;20098;-73
2023/10/02 04:50:34;;;;;;;1.17;0.28;;;;;;;9.56;77.08;101482.69;5080921;28;20048;-76
2023/10/02 04:52:53;;;;;;;0.57;0.15;;;;;;;9.54;76.78;101484.44;5082902;28;20436;-77
2023/10/02 04:55:24;;;;;;;1.90;0.30;;;;;;;9.55;76.65;101494.88;5086807;28;20048;-78
2023/10/02 04:57:52;;;;;;;4.15;0.35;;;;;;;9.54;76.85;101493.13;5080110;28;20044;-74
2023/10/02 05:00:32;;;;;;;1.83;0.30;;;;;;;9.55;76.57;101487.03;5080230;28;20050;-74
2023/10/02 05:03:17;;;;;;;2.15;0.20;;;;;;;9.54;76.42;101481.84;5079377;28;20142;-75
2023/10/02 05:05:48;;;;;;;4.47;0.32;;;;;;;9.52;76.49;101487.06;5078405;28;20056;-77
2023/10/02 05:08:19;;;;;;;2.22;0.30;;;;;;;9.53;76.53;101482.69;5068246;28;20635;-75
2023/10/02 05:10:56;;;;;;;1.30;0.28;;;;;;;9.49;76.91;101476.63;5074393;28;20813;-76
2023/10/02 05:16:11;;;;;;;2.03;0.40;;;;;;;9.51;76.95;101487.06;5070401;28;20047;-76
2023/10/02 05:18:44;;;;;;;5.30;0.30;;;;;;;9.51;76.92;101494.91;5072020;28;20090;-76
2023/10/02 05:21:16;;;;;;;1.23;0.30;;;;;;;9.50;76.90;101498.34;5076463;28;20056;-76
2023/10/02 05:23:43;;;;;;;1.55;0.25;;;;;;;9.49;76.84;101496.63;5066506;28;20048;-76
2023/10/02 05:26:29;;;;;;;2.60;0.30;;;;;;;9.50;76.93;101491.38;5068829;28;20052;-76
2023/10/02 05:28:56;;;;;;;3.17;0.40;;;;;;;9.50;77.29;101482.72;5066407;28;20055;-76
2023/10/02 05:31:23;;;;;;;2.45;0.40;;;;;;;9.49;77.47;101489.66;5073938;28;20429;-76
2023/10/02 05:33:51;;;;;;;1.73;0.20;;;;;;;9.50;77.21;101486.19;5071684;28;20048;-76
2023/10/02 05:36:21;;;;;;;1.75;0.40;;;;;;;9.46;77.67;101474.91;5071507;28;20043;-76
2023/10/02 05:41:38;;;;;;;1.63;0.50;;;;;;;9.53;77.54;101478.34;5071994;28;20123;-75
2023/10/02 05:44:13;;;;;;;4.20;0.68;;;;;;;9.53;77.67;101483.56;5073214;28;20049;-77
2023/10/02 05:46:55;;;;;;;2.40;0.30;;;;;;;9.53;77.61;101478.34;5065784;28;20075;-75
2023/10/02 05:49:24;;;;;;;1.38;0.40;;;;;;;9.57;77.90;101474.88;5074472;28;20059;-75
2023/10/02 05:51:55;;;;;;;3.33;0.30;;;;;;;9.59;78.52;101461.81;5071742;28;20060;-75
2023/10/02 05:54:26;;;;;;;1.85;0.30;;;;;;;9.61;78.52;101454.84;5068289;28;20490;-74
2023/10/02 05:57:08;;;;;;;3.03;0.30;;;;;;;9.62;78.57;101457.47;5069973;28;20047;-78
2023/10/02 05:59:43;;;;;;;2.78;0.40;;;;;;;9.63;78.40;101453.97;5070518;28;20485;-81
2023/10/02 06:02:12;;;;;;;3.55;0.30;;;;;;;9.62;78.80;101447.03;5075345;28;20048;-80
2023/10/02 06:04:47;;;;;;;3.45;0.50;;;;;;;9.68;78.63;101454.84;5063739;28;20106;-81
2023/10/02 06:07:19;;;;;;;4.28;0.63;;;;;;;9.71;78.65;101456.56;5074803;28;20051;-79
2023/10/02 06:09:47;;;;;;;7.38;0.60;;;;;;;9.74;78.92;101456.56;5066091;28;20503;-80
2023/10/02 06:12:18;;;;;;;4.82;0.40;;;;;;;9.73;79.16;101443.50;5078970;28;20720;-81
2023/10/02 06:14:45;;;;;;;3.25;0.68;;;;;;;9.80;79.28;101450.44;5066093;28;20040;-80
2023/10/02 06:17:13;;;;;;;4.03;0.30;;;;;;;9.82;79.42;101446.09;5075756;28;20516;-80
2023/10/02 06:19:48;;;;;;;1.63;0.40;;;;;;;9.85;79.35;101452.16;5066787;28;20044;-80
2023/10/02 06:22:15;;;;;;;3.88;0.40;;;;;;;9.88;79.59;101451.28;5065295;28;20135;-79
2023/10/02 06:24:43;;;;;;;2.47;0.40;;;;;;;9.91;79.91;101449.50;5073899;28;20068;-80
2023/10/02 06:27:17;;;;;;;1.67;0.50;;;;;;;9.94;80.06;101453.84;5064902;28;20181;-80
2023/10/02 06:29:44;;;;;;;4.32;0.45;;;;;;;9.97;79.92;101451.22;5057551;28;20143;-80
2023/10/02 06:32:19;;;;;;;4.25;0.60;;;;;;;10.00;80.28;101453.81;5069309;28;20106;-80
2023/10/02 06:34:50;;;;;;;8.40;0.77;;;;;;;10.02;80.32;101452.06;5070035;28;20139;-80
2023/10/02 06:37:18;;;;;;;4.70;1.15;;;;;;;10.05;80.60;101443.34;5061693;28;20044;-80
2023/10/02 06:39:47;;;;;;;5.72;1.25;;;;;;;10.09;80.56;101458.97;5071191;28;20489;-80
2023/10/02 06:42:19;;;;;;;3.17;0.47;;;;;;;10.12;80.82;101463.31;5066992;28;20041;-79
2023/10/02 06:44:58;;;;;;;5.75;0.63;;;;;;;10.16;80.73;101457.22;5075100;28;20055;-80
2023/10/02 06:47:28;;;;;;;9.60;1.10;;;;;;;10.20;80.59;101455.44;5070131;28;20040;-80
2023/10/02 06:50:03;;;;;;;5.93;0.73;;;;;;;10.24;81.03;101457.16;5057508;28;20124;-80
2023/10/02 06:52:32;;;;;;;9.73;0.90;;;;;;;10.21;80.87;101446.72;5065072;28;20106;-80
2023/10/02 06:55:01;;;;;;;1.65;0.70;;;;;;;10.30;81.02;101464.97;5074076;28;20469;-80
2023/10/02 06:57:28;;;;;;;3.13;0.65;;;;;;;10.35;80.82;101471.03;5067466;28;20111;-74
2023/10/02 06:59:56;;;;;;;3.97;0.50;;;;;;;10.37;80.88;101466.69;5064188;28;20044;-75
2023/10/02 07:02:25;;;;;;;2.60;0.82;;;;;;;10.42;80.95;101466.66;5070780;28;20146;-76
2023/10/02 07:04:54;;;;;;;6.07;1.58;;;;;;;10.45;81.27;101459.66;5070453;28;20036;-75
2023/10/02 07:07:25;;;;;;;11.20;3.50;;;;;;;10.48;81.69;101457.03;5072704;28;20444;-78
2023/10/02 07:09:54;;;;;;;9.70;2.85;;;;;;;10.52;81.22;101461.34;5074190;28;20048;-81
2023/10/02 07:12:22;;;;;;;8.82;1.55;;;;;;;10.56;81.50;101449.16;5060222;28;20057;-80
2023/10/02 07:14:49;;;;;;;10.30;2.08;;;;;;;10.61;81.41;101449.09;5073872;28;20481;-80
2023/10/02 07:17:23;;;;;;;3.97;0.85;;;;;;;10.64;81.30;101449.94;5066861;28;20048;-79
2023/10/02 07:19:50;;;;;;;6.00;1.10;;;;;;;10.67;81.51;101449.03;5068842;28;20037;-80
2023/10/02 07:22:24;;;;;;;3.60;0.70;;;;;;;10.71;81.55;101442.94;5068707;28;20489;-80
2023/10/02 07:24:54;;;;;;;4.30;0.80;;;;;;;10.76;81.45;101451.59;5072058;28;20429;-77
2023/10/02 07:27:24;;;;;;;6.55;1.25;;;;;;;10.78;81.60;101447.22;5062289;28;20049;-75
2023/10/02 07:29:52;;;;;;;9.18;0.88;;;;;;;10.80;81.72;101437.63;5067668;28;20040;-78
2023/10/02 07:32:21;;;;;;;5.15;0.57;;;;;;;10.86;81.33;101439.31;5063972;28;20055;-76
2023/10/02 07:34:50;;;;;;;5.30;0.57;;;;;;;10.90;81.68;101439.28;5075902;28;20806;-78
2023/10/02 07:37:21;;;;;;;5.28;0.63;;;;;;;10.94;81.68;101438.34;5075791;28;20048;-76
2023/10/02 07:39:58;;;;;;;6.18;1.02;;;;;;;10.99;81.98;101443.56;5069868;28;20052;-79
2023/10/02 07:42:28;;;;;;;2.13;0.75;;;;;;;11.03;81.56;101446.09;5079181;28;20051;-79
2023/10/02 07:44:56;;;;;;;10.25;1.00;;;;;;;11.08;81.52;101443.47;5066809;28;20505;-78
2023/10/02 07:47:23;;;;;;;2.90;0.60;;;;;;;11.12;81.73;101436.44;5070433;28;20593;-76
2023/10/02 07:49:54;;;;;;;4.85;0.70;;;;;;;11.12;81.94;101423.38;5069430;28;20697;-79
2023/10/02 07:52:29;;;;;;;4.72;0.88;;;;;;;11.20;81.70;101437.22;5067331;28;20044;-81
2023/10/02 07:55:01;;;;;;;8.80;1.08;;;;;;;11.23;81.77;101443.28;5074928;28;20048;-77
2023/10/02 07:57:30;;;;;;;4.32;0.60;;;;;;;11.25;81.71;101438.06;5072885;28;20511;-78
2023/10/02 07:59:58;;;;;;;4.18;0.70;;;;;;;11.28;81.77;101424.09;5067492;28;20051;-76
2023/10/02 08:02:30;;;;;;;3.53;0.57;;;;;;;11.35;81.95;101436.19;5081189;28;20464;-80
2023/10/02 08:04:59;;;;;;;5.32;1.13;;;;;;;11.36;81.92;101435.34;5076299;28;20044;-80
2023/10/02 08:07:26;;;;;;;4.88;0.80;;;;;;;11.44;81.80;101442.22;5074937;28;20049;-79
2023/10/02 08:09:55;;;;;;;3.33;0.90;;;;;;;11.44;81.77;101431.75;5074779;28;20052;-77
2023/10/02 08:12:34;;;;;;;4.97;0.85;;;;;;;11.52;81.69;101441.25;5065899;28;20669;-78
2023/10/02 08:15:26;;;;;;;4.50;0.73;;;;;;;11.53;81.86;101436.00;5069240;28;20108;-77
2023/10/02 08:18:03;;;;;;;24.15;1.98;;;;;;;11.60;82.03;101442.00;5072262;28;20506;-76
2023/10/02 08:20:37;;;;;;;3.58;0.80;;;;;;;11.63;82.17;101444.59;5068760;28;20760;-75
2023/10/02 08:23:21;;;;;;;8.27;1.50;;;;;;;11.69;82.18;101436.66;5069186;28;20044;-75
2023/10/02 08:26:00;;;;;;;3.28;0.98;;;;;;;11.71;82.22;101443.63;5070405;28;20045;-74
2023/10/02 08:28:30;;;;;;;5.22;1.15;;;;;;;11.71;82.03;101424.44;5069085;28;20204;-75
2023/10/02 08:31:03;;;;;;;3.88;1.05;;;;;;;11.79;82.13;101424.34;5068844;28;20072;-76
2023/10/02 08:33:31;;;;;;;7.10;0.93;;;;;;;11.83;82.08;101421.66;5064754;28;20048;-76
2023/10/02 08:36:09;;;;;;;4.85;1.42;;;;;;;11.87;82.23;101420.78;5064908;28;20040;-75
2023/10/02 08:38:36;;;;;;;7.97;1.00;;;;;;;11.90;82.28;101420.72;5069994;28;20490;-77
2023/10/02 08:41:08;;;;;;;3.88;1.00;;;;;;;11.95;82.41;101427.63;5075538;28;20071;-77
2023/10/02 08:43:41;;;;;;;8.25;1.08;;;;;;;11.98;82.21;101417.13;5070723;28;20048;-77
2023/10/02 08:46:19;;;;;;;8.32;1.20;;;;;;;12.02;82.24;101408.34;5074070;28;20071;-74
2023/10/02 08:48:54;;;;;;;6.00;1.25;;;;;;;12.02;82.41;101403.13;5065169;28;20053;-74
2023/10/02 08:51:29;;;;;;;5.90;1.05;;;;;;;12.09;82.40;101404.75;5071729;28;20056;-74
2023/10/02 08:53:57;;;;;;;7.03;1.02;;;;;;;12.12;82.24;101394.22;5071806;28;20048;-75
2023/10/02 08:56:26;;;;;;;5.68;0.80;;;;;;;12.15;82.57;101383.69;5075528;28;20044;-74
2023/10/02 08:59:26;;;;;;;7.28;1.30;;;;;;;12.19;82.51;101380.16;5075883;28;20076;-75
2023/10/02 09:02:07;;;;;;;5.20;1.23;;;;;;;12.22;82.52;101369.63;5071513;28;20159;-75
2023/10/02 09:04:34;;;;;;;8.80;1.30;;;;;;;12.25;82.68;101369.56;5072555;28;20443;-74
2023/10/02 09:07:14;;;;;;;5.28;1.15;;;;;;;12.28;82.63;101371.28;5069410;28;20052;-74
2023/10/02 09:09:55;;;;;;;7.85;1.42;;;;;;;12.31;82.77;101372.09;5070418;28;20618;-75
2023/10/02 09:12:22;;;;;;;4.35;0.95;;;;;;;12.37;82.80;101358.03;5074240;28;20161;-74
2023/10/02 09:14:54;;;;;;;8.05;1.27;;;;;;;12.40;83.11;101362.38;5069789;28;20463;-75
2023/10/02 09:17:22;;;;;;;4.13;1.27;;;;;;;12.43;82.86;101349.22;5070502;28;20049;-78
2023/10/02 09:20:00;;;;;;;7.20;1.25;;;;;;;12.47;83.00;101343.03;5071044;28;20052;-78
2023/10/02 09:22:36;;;;;;;4.65;1.00;;;;;;;12.52;83.31;101343.81;5067883;28;20094;-78
2023/10/02 09:25:15;;;;;;;5.05;1.20;;;;;;;12.55;83.18;101338.50;5075954;28;20127;-76
2023/10/02 09:27:58;;;;;;;6.93;1.67;;;;;;;12.59;83.42;101332.34;5068024;28;20052;-74
2023/10/02 09:30:37;;;;;;;6.90;1.48;;;;;;;12.63;83.48;101326.13;5071765;28;20045;-75
2023/10/02 09:33:07;;;;;;;13.73;2.45;;;;;;;12.69;83.60;101322.53;5075383;28;20064;-75
2023/10/02 09:35:42;;;;;;;6.28;1.02;;;;;;;12.72;83.57;101312.88;5073157;28;20044;-74
2023/10/02 09:38:13;;;;;;;5.53;1.13;;;;;;;12.75;83.48;101315.44;5068412;28;20048;-77
2023/10/02 09:40:58;;;;;;;7.13;1.70;;;;;;;12.79;83.55;101311.00;5068029;28;20068;-75
2023/10/02 09:43:27;;;;;;;7.07;1.00;;;;;;;12.82;83.50;101309.16;5059972;28;20428;-75
2023/10/02 09:45:58;;;;;;;9.50;1.63;;;;;;;12.88;83.80;101315.19;5064632;28;20048;-75
2023/10/02 09:49:01;;;;;;;7.97;1.40;;;;;;;12.92;83.77;101303.75;5055993;28;20482;-76
2023/10/02 09:52:09;;;;;;;5.38;1.50;;;;;;;12.97;83.70;101301.91;5060019;28;20919;-75
2023/10/02 09:54:40;;;;;;;5.97;1.20;;;;;;;13.01;nan;101293.09;5064969;28;20051;-75
2023/10/02 09:57:14;;;;;;;8.30;1.35;;;;;;;13.04;84.18;101296.50;5066231;28;20076;-74
2023/10/02 09:59:46;;;;;;;5.28;1.42;;;;;;;13.10;84.05;101292.91;5063302;28;20127;-75
2023/10/02 10:02:49;;;;;;;6.95;1.60;;;;;;;13.12;84.32;101288.50;5065514;28;20053;-75
2023/10/02 10:10:46;;;;;;;3.95;1.38;;;;;;;13.24;84.57;101285.59;5064867;28;20053;-73
2023/10/02 10:13:25;;;;;;;6.72;1.17;;;;;;;13.34;84.78;101290.69;5064520;28;20083;-71
2023/10/02 10:16:30;;;;;;;4.45;1.60;;;;;;;13.37;84.68;101280.97;5070133;28;20051;-72
2023/10/02 10:19:32;;;;;;;5.05;1.88;;;;;;;13.37;84.38;101267.00;5051956;28;20044;-73
2023/10/02 10:22:00;;;;;;;9.45;1.00;;;;;;;13.44;84.77;101287.81;5069941;28;20055;-72
2023/10/02 10:24:35;;;;;;;3.15;0.88;;;;;;;13.49;84.95;101274.63;5067579;28;20040;-72
2023/10/02 10:27:01;;;;;;;;;;;;;;;13.54;84.04;101272.72;5066361;28;20048;-74
2023/10/02 10:29:41;;;;;;;5.13;1.35;;;;;;;13.57;84.48;101277.91;5072441;28;19924;-75
2023/10/02 10:32:25;;;;;;;3.20;1.30;;;;;;;13.62;84.67;101278.66;5063094;28;20098;-74
2023/10/02 10:35:14;;;;;;;2.75;0.77;;;;;;;13.65;84.78;101270.72;5071569;28;20119;-75
2023/10/02 10:37:41;;;;;;;3.58;0.93;;;;;;;13.69;84.66;101280.25;5072374;28;20040;-73
2023/10/02 10:40:43;;;;;;;3.55;0.93;;;;;;;13.73;84.88;101268.78;5070915;28;20060;-73
2023/10/02 10:43:05;;;;;;;1.55;0.65;;;;;;;13.78;84.87;101265.19;5072025;28;20080;-74
2023/10/02 10:45:33;;;;;;;2.58;0.85;;;;;;;13.82;85.04;101261.59;5076162;28;20094;-73
2023/10/02 10:47:59;;;;;;;5.25;0.80;;;;;;;13.86;84.85;101263.22;5069440;28;20044;-74
2023/10/02 10:50:32;;;;;;;3.00;0.90;;;;;;;13.89;85.05;101252.66;5071433;28;20074;-75
2023/10/02 10:53:25;;;;;;;1.25;0.50;;;;;;;13.93;85.14;101249.06;5070480;28;20062;-74
2023/10/02 10:55:54;;;;;;;3.50;0.65;;;;;;;14.00;85.23;101241.88;5073258;28;20131;-76
2023/10/02 10:58:33;;;;;;;4.43;0.82;;;;;;;14.06;85.31;101239.09;5069176;28;20135;-74
2023/10/02 11:01:02;;;;;;;4.88;0.80;;;;;;;14.09;85.15;101232.00;5072011;28;20040;-75
2023/10/02 11:03:30;;;;;;;2.58;0.70;;;;;;;14.15;85.23;101223.13;5076913;28;20051;-74
2023/10/02 11:06:03;;;;;;;4.00;0.60;;;;;;;14.21;85.40;101232.59;5062088;28;20138;-75
2023/10/02 11:08:33;;;;;;;2.15;0.70;;;;;;;14.25;85.15;101231.59;5071595;28;20055;-75
2023/10/02 11:11:06;;;;;;;3.45;1.08;;;;;;;14.32;85.04;101235.81;5072383;28;20047;-76
2023/10/02 11:13:51;;;;;;;7.47;1.13;;;;;;;14.35;85.05;101228.69;5063641;28;20117;-74
2023/10/02 11:16:34;;;;;;;3.30;0.70;;;;;;;14.42;84.84;101236.41;5076373;28;20178;-75
2023/10/02 11:19:34;;;;;;;4.80;1.10;;;;;;;14.46;84.81;101232.78;5063345;28;20501;-75
2023/10/02 11:22:18;;;;;;;4.25;0.85;;;;;;;14.51;84.59;101234.38;5063250;28;20056;-75
2023/10/02 11:24:48;;;;;;;1.23;0.60;;;;;;;14.56;84.62;101229.03;5071137;28;20044;-73
2023/10/02 11:27:16;;;;;;;1.05;0.47;;;;;;;14.56;84.54;101221.16;5068801;28;20551;-75
2023/10/02 11:29:45;;;;;;;2.33;0.90;;;;;;;14.65;84.46;101228.78;5071556;28;20460;-74
2023/10/02 11:32:23;;;;;;;1.92;0.70;;;;;;;14.71;84.48;101222.47;5065984;28;20040;-73
2023/10/02 11:34:51;;;;;;;5.00;0.50;;;;;;;14.77;84.54;101230.19;5075106;28;20055;-74
2023/10/02 11:37:23;;;;;;;1.52;0.60;;;;;;;14.80;84.43;101219.63;5070878;28;20488;-72
2023/10/02 11:39:51;;;;;;;2.45;1.23;;;;;;;14.84;84.20;101214.19;5071257;28;20122;-75
2023/10/02 11:42:21;;;;;;;1.52;0.47;;;;;;;14.88;84.06;101216.75;5069459;28;20488;-73
2023/10/02 11:44:48;;;;;;;1.65;0.50;;;;;;;14.94;83.75;101219.19;5072945;28;20475;-71
2023/10/02 11:47:15;;;;;;;2.08;0.55;;;;;;;14.94;83.90;101209.56;5067123;28;20338;-79
2023/10/02 11:49:43;;;;;;;2.22;0.60;;;;;;;15.03;83.57;101219.78;5065898;28;20048;-77
2023/10/02 11:52:10;;;;;;;2.33;0.40;;;;;;;15.06;83.57;101211.81;5066726;28;20051;-77
2023/10/02 11:54:39;;;;;;;3.67;0.60;;;;;;;15.10;83.47;101206.44;5062262;28;20397;-78
2023/10/02 11:57:12;;;;;;;1.48;0.57;;;;;;;15.16;83.35;101208.88;5075306;28;20106;-79
2023/10/02 11:59:41;;;;;;;4.18;0.40;;;;;;;15.20;83.27;101195.59;5069911;28;20133;-77
2023/10/02 12:02:10;;;;;;;1.48;0.43;;;;;;;15.24;83.14;101204.25;5069499;28;20046;-76
2023/10/02 12:04:38;;;;;;;2.63;0.43;;;;;;;15.28;82.90;101208.50;5070135;28;20044;-76
2023/10/02 12:07:05;;;;;;;1.80;0.60;;;;;;;15.30;82.86;101193.53;5061803;28;20779;-79
2023/10/02 12:09:33;;;;;;;1.40;0.50;;;;;;;15.31;82.69;101195.25;5075773;28;20088;-77
2023/10/02 12:12:02;;;;;;;5.35;0.77;;;;;;;15.37;82.73;101196.81;5064205;28;20052;-79
2023/10/02 12:14:29;;;;;;;1.02;0.40;;;;;;;15.42;82.20;101200.19;5071989;28;20040;-77
2023/10/02 12:16:59;;;;;;;2.17;0.60;;;;;;;15.38;81.97;101185.41;5073642;28;20640;-77
2023/10/02 12:19:28;;;;;;;2.17;0.52;;;;;;;15.42;81.75;101179.13;5060360;28;20123;-77